createdAt,value
2017-02-23T00:06:06.358Z,996.25
2017-02-23T00:16:06.287Z,996.3
2017-02-23T00:26:06.285Z,996.22
2017-02-23T00:36:06.282Z,996.2
2017-02-23T00:46:06.302Z,996.12
2017-02-23T00:56:06.360Z,996.08
2017-02-23T01:06:06.286Z,996.06
2017-02-23T01:16:06.269Z,996.1
2017-02-23T01:26:06.277Z,996.14
2017-02-23T01:36:06.293Z,996.1
2017-02-23T01:46:06.275Z,995.92
2017-02-23T01:56:06.337Z,995.76
2017-02-23T02:06:06.286Z,995.68
2017-02-23T02:16:06.278Z,995.62
2017-02-23T02:26:06.279Z,995.44
2017-02-23T02:36:06.269Z,995.36
2017-02-23T02:46:06.265Z,995.17
2017-02-23T02:56:06.260Z,995.08
2017-02-23T03:06:06.271Z,995
2017-02-23T03:16:06.267Z,994.98
2017-02-23T03:26:06.284Z,994.93
2017-02-23T03:36:06.252Z,994.79
2017-02-23T03:46:06.270Z,994.69
2017-02-23T03:56:06.266Z,994.5
2017-02-23T04:06:06.300Z,994.41
2017-02-23T04:16:06.396Z,994.27
2017-02-23T04:26:06.365Z,994.13
2017-02-23T04:36:06.310Z,993.91
2017-02-23T04:46:06.386Z,993.68
2017-02-23T04:56:06.318Z,993.51
2017-02-23T05:06:06.396Z,993.27
2017-02-23T05:16:06.340Z,993.01
2017-02-23T05:26:06.439Z,992.81
2017-02-23T05:36:06.366Z,992.61
2017-02-23T05:46:06.387Z,992.43
2017-02-23T05:56:06.414Z,992.2
2017-02-23T06:06:06.378Z,992.04
2017-02-23T06:16:06.397Z,991.83
2017-02-23T06:26:06.396Z,991.76
2017-02-23T06:36:06.422Z,991.72
2017-02-23T06:46:06.516Z,991.73
2017-02-23T06:56:06.485Z,991.75
2017-02-23T07:06:06.435Z,991.76
2017-02-23T07:16:06.435Z,991.71
2017-02-23T07:26:06.455Z,991.76
2017-02-23T07:36:06.450Z,991.58
2017-02-23T07:46:07.000Z,991.5
2017-02-23T07:56:07.280Z,991.31
2017-02-23T08:06:06.519Z,991.35
2017-02-23T08:16:06.499Z,991.12
2017-02-23T08:26:06.505Z,990.8
2017-02-23T08:36:06.642Z,990.65
2017-02-23T08:46:06.530Z,990.41
2017-02-23T08:56:06.545Z,990.14
2017-02-23T09:06:06.892Z,989.72
2017-02-23T09:16:06.670Z,989.79
2017-02-23T09:26:06.548Z,989.6
2017-02-23T09:36:06.672Z,989.47
2017-02-23T09:46:06.571Z,989.42
2017-02-23T09:56:06.586Z,989.14
2017-02-23T10:06:06.660Z,988.99
2017-02-23T10:16:06.607Z,988.85
2017-02-23T10:26:06.685Z,988.69
2017-02-23T10:36:06.607Z,988.49
2017-02-23T10:46:06.611Z,988.3
2017-02-23T10:56:06.628Z,988.18
2017-02-23T11:06:06.749Z,987.94
2017-02-23T11:16:06.693Z,987.48
2017-02-23T11:26:06.749Z,987.22
2017-02-23T11:36:06.708Z,987.02
2017-02-23T11:46:06.668Z,986.69
2017-02-23T11:56:06.671Z,986.31
2017-02-23T12:06:06.687Z,985.72
2017-02-23T12:16:06.732Z,985.11
2017-02-23T12:26:06.700Z,984.63
2017-02-23T12:36:06.777Z,984.21
2017-02-23T12:46:06.713Z,983.76
2017-02-23T12:56:06.731Z,983.46
2017-02-23T13:06:06.768Z,983.23
2017-02-23T13:16:06.842Z,983.02
2017-02-23T13:26:06.750Z,982.54
2017-02-23T13:36:06.869Z,982.2
2017-02-23T13:46:06.903Z,981.89
2017-02-23T13:56:06.883Z,981.62
2017-02-23T14:06:06.863Z,981.69
2017-02-23T14:16:06.791Z,981.71
2017-02-23T14:26:06.810Z,981.42
2017-02-23T14:36:06.830Z,981.06
2017-02-23T14:46:06.886Z,980.96
2017-02-23T14:56:06.843Z,980.88
2017-02-23T15:06:06.858Z,980.36
2017-02-23T15:16:06.857Z,980.3
2017-02-23T15:26:06.928Z,980.15
2017-02-23T15:36:06.897Z,979.82
2017-02-23T15:46:06.885Z,980.01
2017-02-23T15:56:06.885Z,980.13
2017-02-23T16:06:06.893Z,980.23
2017-02-23T16:16:06.911Z,980.06
2017-02-23T16:26:06.913Z,980.02
2017-02-23T16:36:06.932Z,979.96
2017-02-23T16:46:06.922Z,980.36
2017-02-23T16:56:09.401Z,980.11
2017-02-23T17:06:06.949Z,980.17
2017-02-23T17:16:07.054Z,980.1
2017-02-23T17:26:06.981Z,980.07
2017-02-23T17:36:07.078Z,979.96
2017-02-23T17:46:07.009Z,980.53
2017-02-23T17:56:06.992Z,980.21
2017-02-23T18:06:07.036Z,980.15
2017-02-23T18:16:07.025Z,980.23
2017-02-23T18:26:07.023Z,980.42
2017-02-23T18:36:07.019Z,980.26
2017-02-23T18:46:07.034Z,980.27
2017-02-23T18:56:07.039Z,980.33
2017-02-23T19:06:07.045Z,980.29
2017-02-23T19:16:07.053Z,980.32
2017-02-23T19:26:07.087Z,980.29
2017-02-23T19:36:07.073Z,980.41
2017-02-23T19:46:07.093Z,980.3
2017-02-23T19:56:07.082Z,980.4
2017-02-23T20:06:07.102Z,980.73
2017-02-23T20:16:07.110Z,980.51
2017-02-23T20:26:07.230Z,980.82
2017-02-23T20:36:07.121Z,981.28
2017-02-23T20:46:07.135Z,980.89
2017-02-23T20:56:07.225Z,980.91
2017-02-23T21:06:07.164Z,981.05
2017-02-23T21:16:07.159Z,981.26
2017-02-23T21:26:07.171Z,981.33
2017-02-23T21:36:07.263Z,981.32
2017-02-23T21:46:07.333Z,981.5
2017-02-23T21:56:07.208Z,981.49
2017-02-23T22:06:07.197Z,981.5
2017-02-23T22:16:07.203Z,981.64
2017-02-23T22:26:07.843Z,981.59
2017-02-23T22:36:07.218Z,981.75
2017-02-23T22:46:07.246Z,981.77
2017-02-23T22:56:07.228Z,981.9
2017-02-23T23:06:07.244Z,982.02
2017-02-23T23:16:07.251Z,982.04
2017-02-23T23:26:07.253Z,982.2
2017-02-23T23:36:07.299Z,982.51
2017-02-23T23:46:07.271Z,982.89
2017-02-23T23:56:07.274Z,983.22
